createdAt,value
2022-10-23T00:03:00.560Z,2.63
2022-10-23T00:07:02.274Z,3.35
2022-10-23T00:11:15.977Z,3.20
2022-10-23T00:15:20.157Z,2.45
2022-10-23T00:19:21.825Z,2.78
2022-10-23T00:23:24.498Z,2.83
2022-10-23T00:27:26.410Z,2.83
2022-10-23T00:31:28.085Z,2.60
2022-10-23T00:35:29.760Z,2.90
2022-10-23T00:39:34.016Z,2.60
2022-10-23T00:43:55.431Z,2.60
2022-10-23T00:47:57.239Z,2.60
2022-10-23T00:52:05.049Z,2.20
2022-10-23T00:56:07.068Z,1.90
2022-10-23T01:00:11.887Z,2.35
2022-10-23T01:04:13.589Z,2.40
2022-10-23T01:08:43.352Z,2.47
2022-10-23T01:13:07.872Z,2.70
2022-10-23T01:17:19.797Z,2.10
2022-10-23T01:21:31.145Z,2.33
2022-10-23T01:26:06.935Z,2.28
2022-10-23T01:30:17.190Z,2.35
2022-10-23T01:34:23.624Z,2.38
2022-10-23T01:38:53.915Z,1.73
2022-10-23T01:43:01.894Z,2.22
2022-10-23T01:47:07.605Z,2.45
2022-10-23T01:51:13.232Z,2.55
2022-10-23T01:55:16.481Z,2.35
2022-10-23T01:59:23.523Z,2.28
2022-10-23T02:03:29.224Z,2.42
2022-10-23T02:07:31.836Z,2.63
2022-10-23T02:11:40.817Z,2.33
2022-10-23T02:15:55.642Z,2.53
2022-10-23T02:20:09.647Z,2.60
2022-10-23T02:24:19.819Z,2.50
2022-10-23T02:28:27.486Z,2.40
2022-10-23T02:32:29.531Z,1.90
2022-10-23T02:36:31.380Z,2.10
2022-10-23T02:40:41.668Z,2.03
2022-10-23T02:44:55.911Z,2.42
2022-10-23T02:49:13.715Z,2.35
2022-10-23T02:53:27.798Z,2.03
2022-10-23T02:57:35.416Z,2.10
2022-10-23T03:01:57.569Z,2.38
2022-10-23T03:05:59.824Z,1.98
2022-10-23T03:10:01.408Z,1.93
2022-10-23T03:14:03.075Z,2.15
2022-10-23T03:18:04.791Z,1.92
2022-10-23T03:22:06.529Z,2.42
2022-10-23T03:26:08.197Z,1.90
2022-10-23T03:30:10.226Z,2.10
2022-10-23T03:34:11.894Z,2.00
2022-10-23T03:38:13.638Z,1.95
2022-10-23T03:42:15.274Z,1.90
2022-10-23T03:46:16.958Z,1.85
2022-10-23T03:50:19.291Z,1.80
2022-10-23T03:54:26.038Z,1.77
2022-10-23T03:58:27.740Z,1.80
2022-10-23T04:02:29.462Z,2.33
2022-10-23T04:06:31.141Z,2.00
2022-10-23T04:10:33.373Z,2.00
2022-10-23T04:14:35.439Z,1.63
2022-10-23T04:18:37.134Z,1.93
2022-10-23T04:22:38.831Z,1.73
2022-10-23T04:26:40.445Z,2.17
2022-10-23T04:30:42.176Z,1.88
2022-10-23T04:34:43.891Z,1.58
2022-10-23T04:38:45.675Z,1.55
2022-10-23T04:42:47.379Z,1.90
2022-10-23T04:46:49.180Z,1.88
2022-10-23T04:50:59.232Z,1.85
2022-10-23T04:55:00.976Z,2.15
2022-10-23T04:59:02.853Z,1.40
2022-10-23T05:03:04.511Z,1.85
2022-10-23T05:07:06.204Z,1.45
2022-10-23T05:11:07.827Z,1.85
2022-10-23T05:15:10.047Z,1.80
2022-10-23T05:19:14.777Z,1.57
2022-10-23T05:23:19.922Z,1.73
2022-10-23T05:27:22.141Z,1.40
2022-10-23T05:31:25.191Z,1.77
2022-10-23T05:39:28.981Z,1.60
2022-10-23T05:43:31.409Z,1.60
2022-10-23T05:47:34.201Z,1.35
2022-10-23T05:51:43.014Z,1.30
2022-10-23T05:55:44.688Z,1.33
2022-10-23T05:59:46.518Z,1.10
2022-10-23T06:03:48.458Z,2.22
2022-10-23T06:07:50.186Z,1.30
2022-10-23T06:11:51.836Z,1.27
2022-10-23T06:15:53.745Z,1.52
2022-10-23T06:20:00.759Z,1.15
2022-10-23T06:24:02.426Z,1.30
2022-10-23T06:28:04.103Z,1.50
2022-10-23T06:32:05.766Z,1.88
2022-10-23T06:36:10.298Z,1.40
2022-10-23T06:40:12.154Z,1.33
2022-10-23T06:44:13.806Z,1.45
2022-10-23T06:48:20.809Z,1.20
2022-10-23T06:52:45.421Z,1.70
2022-10-23T06:56:44.385Z,1.15
2022-10-23T07:00:47.089Z,1.50
2022-10-23T07:04:54.352Z,1.25
2022-10-23T07:08:56.225Z,1.30
2022-10-23T07:13:01.086Z,1.30
2022-10-23T07:17:03.183Z,1.52
2022-10-23T07:21:05.094Z,1.70
2022-10-23T07:25:07.314Z,1.70
2022-10-23T07:29:09.843Z,1.13
2022-10-23T07:33:12.651Z,1.50
2022-10-23T07:37:14.317Z,1.30
2022-10-23T07:41:15.963Z,1.80
2022-10-23T07:45:19.795Z,2.08
2022-10-23T07:49:21.738Z,1.40
2022-10-23T07:53:25.211Z,1.77
2022-10-23T07:57:26.990Z,1.67
2022-10-23T08:01:34.484Z,1.48
2022-10-23T08:05:36.365Z,1.35
2022-10-23T08:09:38.248Z,1.20
2022-10-23T08:13:39.914Z,1.38
2022-10-23T08:17:41.851Z,1.73
2022-10-23T08:21:44.116Z,1.25
2022-10-23T08:25:46.789Z,1.80
2022-10-23T08:29:48.592Z,1.83
2022-10-23T08:33:50.359Z,2.05
2022-10-23T08:37:52.025Z,2.00
2022-10-23T08:41:53.944Z,1.23
2022-10-23T08:46:07.333Z,1.47
2022-10-23T08:50:34.972Z,1.83
2022-10-23T08:55:04.203Z,1.40
2022-10-23T08:59:23.446Z,1.20
2022-10-23T09:03:25.214Z,1.30
2022-10-23T09:07:45.280Z,2.22
2022-10-23T09:12:11.205Z,1.40
2022-10-23T09:16:38.631Z,1.38
2022-10-23T09:20:43.932Z,1.20
2022-10-23T09:24:47.661Z,1.98
2022-10-23T09:28:57.811Z,1.20
2022-10-23T09:33:00.901Z,2.72
2022-10-23T09:37:19.425Z,1.55
2022-10-23T09:41:25.457Z,1.40
2022-10-23T09:45:33.250Z,1.25
2022-10-23T09:49:35.165Z,1.63
2022-10-23T09:53:55.305Z,1.60
2022-10-23T09:57:57.596Z,2.08
2022-10-23T10:02:06.060Z,2.10
2022-10-23T10:06:29.012Z,1.38
2022-10-23T10:10:38.651Z,1.55
2022-10-23T10:14:43.275Z,1.50
2022-10-23T10:18:57.497Z,2.25
2022-10-23T10:23:24.746Z,1.85
2022-10-23T10:27:34.350Z,1.50
2022-10-23T10:32:22.243Z,1.42
2022-10-23T10:36:35.767Z,2.20
2022-10-23T10:41:07.592Z,2.63
2022-10-23T10:45:18.832Z,1.65
2022-10-23T10:49:40.426Z,1.33
2022-10-23T10:54:27.249Z,3.47
2022-10-23T10:58:59.651Z,1.80
2022-10-23T11:03:26.778Z,2.03
2022-10-23T11:07:39.745Z,2.15
2022-10-23T11:20:01.443Z,2.75
2022-10-23T11:24:20.822Z,4.95
2022-10-23T11:29:08.630Z,1.77
2022-10-23T11:34:04.606Z,1.90
2022-10-23T11:38:36.684Z,1.80
2022-10-23T11:43:11.985Z,1.77
2022-10-23T11:47:38.059Z,1.52
2022-10-23T11:51:41.762Z,1.63
2022-10-23T11:56:00.606Z,1.67
2022-10-23T12:00:04.754Z,2.30
2022-10-23T12:04:16.999Z,2.03
2022-10-23T12:08:28.630Z,2.25
2022-10-23T12:12:41.042Z,1.77
2022-10-23T12:16:43.521Z,2.25
2022-10-23T12:20:52.078Z,1.98
2022-10-23T12:25:25.455Z,2.03
2022-10-23T12:29:43.738Z,1.65
2022-10-23T12:33:56.352Z,2.30
2022-10-23T12:38:17.160Z,3.03
2022-10-23T12:42:38.296Z,2.20
2022-10-23T12:46:43.467Z,2.30
2022-10-23T12:50:52.992Z,2.50
2022-10-23T12:55:00.701Z,2.40
2022-10-23T12:59:05.042Z,1.70
2022-10-23T13:03:06.842Z,1.77
2022-10-23T13:07:12.837Z,1.87
2022-10-23T13:11:17.745Z,2.83
2022-10-23T13:15:21.503Z,3.00
2022-10-23T13:19:24.605Z,1.92
2022-10-23T13:23:34.881Z,2.10
2022-10-23T13:27:38.041Z,2.15
2022-10-23T13:31:41.770Z,2.13
2022-10-23T13:35:43.869Z,2.40
2022-10-23T13:39:45.602Z,2.17
2022-10-23T13:43:49.019Z,1.92
2022-10-23T13:47:51.102Z,1.83
2022-10-23T13:51:56.415Z,2.22
2022-10-23T13:56:01.296Z,2.35
2022-10-23T14:00:08.262Z,2.35
2022-10-23T14:04:11.315Z,2.08
2022-10-23T14:08:16.922Z,2.17
2022-10-23T14:12:24.278Z,3.42
2022-10-23T14:16:27.066Z,2.13
2022-10-23T14:20:30.784Z,2.60
2022-10-23T14:24:35.614Z,2.53
2022-10-23T14:28:37.624Z,2.05
2022-10-23T14:32:41.910Z,4.18
2022-10-23T14:36:50.459Z,2.88
2022-10-23T14:40:58.669Z,2.85
2022-10-23T14:45:04.054Z,2.70
2022-10-23T14:49:06.208Z,2.40
2022-10-23T14:53:09.014Z,2.13
2022-10-23T14:57:15.584Z,3.50
2022-10-23T15:01:17.838Z,3.10
2022-10-23T15:05:20.988Z,5.40
2022-10-23T15:09:28.590Z,3.40
2022-10-23T15:13:34.849Z,2.60
2022-10-23T15:17:38.420Z,4.72
2022-10-23T15:21:42.260Z,2.95
2022-10-23T15:25:45.361Z,3.83
2022-10-23T15:29:47.274Z,2.75
2022-10-23T15:33:48.939Z,3.33
2022-10-23T15:37:50.878Z,4.30
2022-10-23T15:41:55.459Z,3.60
2022-10-23T15:45:58.714Z,4.10
2022-10-23T15:50:00.754Z,3.72
2022-10-23T15:54:03.548Z,3.57
2022-10-23T16:02:08.374Z,3.30
2022-10-23T16:06:16.162Z,3.65
2022-10-23T16:10:18.980Z,2.63
2022-10-23T16:14:21.418Z,4.10
2022-10-23T16:18:23.623Z,3.78
2022-10-23T16:22:26.263Z,5.20
2022-10-23T16:26:31.097Z,3.63
2022-10-23T16:30:32.849Z,2.97
2022-10-23T16:34:34.564Z,2.50
2022-10-23T16:38:37.130Z,2.45
2022-10-23T16:42:42.084Z,1.55
2022-10-23T16:46:47.064Z,4.60
2022-10-23T16:50:48.892Z,3.90
2022-10-23T16:54:50.581Z,5.32
2022-10-23T16:58:56.335Z,3.65
2022-10-23T17:02:58.005Z,2.00
2022-10-23T17:07:00.238Z,2.15
2022-10-23T17:11:09.925Z,1.38
2022-10-23T17:15:12.030Z,1.23
2022-10-23T17:19:33.101Z,1.50
2022-10-23T17:23:39.656Z,1.67
2022-10-23T17:27:42.853Z,1.90
2022-10-23T17:31:48.010Z,1.40
2022-10-23T17:35:50.054Z,1.55
2022-10-23T17:39:51.891Z,1.20
2022-10-23T17:43:58.170Z,1.38
2022-10-23T17:48:00.082Z,0.93
2022-10-23T17:52:02.082Z,1.35
2022-10-23T17:56:05.954Z,1.27
2022-10-23T18:00:08.087Z,1.60
2022-10-23T18:04:10.098Z,1.77
2022-10-23T18:08:11.817Z,1.77
2022-10-23T18:12:13.674Z,1.75
2022-10-23T18:16:16.267Z,2.30
2022-10-23T18:20:18.356Z,2.88
2022-10-23T18:24:20.335Z,1.47
2022-10-23T18:28:22.287Z,1.17
2022-10-23T18:32:24.213Z,1.90
2022-10-23T18:36:30.703Z,1.85
2022-10-23T18:40:34.561Z,1.80
2022-10-23T18:44:36.951Z,1.33
2022-10-23T18:48:38.733Z,2.63
2022-10-23T18:52:42.893Z,2.30
2022-10-23T18:56:45.380Z,3.10
2022-10-23T19:00:47.273Z,2.20
2022-10-23T19:04:49.011Z,3.15
2022-10-23T19:08:51.357Z,1.80
2022-10-23T19:12:53.260Z,2.22
2022-10-23T19:17:09.680Z,1.90
2022-10-23T19:21:13.583Z,1.85
2022-10-23T19:25:19.486Z,2.45
2022-10-23T19:29:26.609Z,2.38
2022-10-23T19:33:28.771Z,2.42
2022-10-23T19:37:30.639Z,2.20
2022-10-23T19:41:32.487Z,2.28
2022-10-23T19:45:35.135Z,2.58
2022-10-23T19:49:36.987Z,2.35
2022-10-23T19:53:38.955Z,2.17
2022-10-23T19:57:41.084Z,2.43
2022-10-23T20:01:46.332Z,2.42
2022-10-23T20:05:50.622Z,2.83
2022-10-23T20:09:52.621Z,2.95
2022-10-23T20:13:55.561Z,2.10
2022-10-23T20:22:03.544Z,2.40
2022-10-23T20:26:15.985Z,2.55
2022-10-23T20:30:17.876Z,2.08
2022-10-23T20:34:19.619Z,2.80
2022-10-23T20:38:22.883Z,2.63
2022-10-23T20:42:24.621Z,2.25
2022-10-23T20:46:27.258Z,3.05
2022-10-23T20:50:29.367Z,2.30
2022-10-23T20:54:31.878Z,2.57
2022-10-23T20:58:33.889Z,2.70
2022-10-23T21:02:35.687Z,3.00
2022-10-23T21:06:57.437Z,2.95
2022-10-23T21:10:59.366Z,3.03
2022-10-23T21:15:01.161Z,2.60
2022-10-23T21:19:04.412Z,2.95
2022-10-23T21:23:06.102Z,2.80
2022-10-23T21:27:07.822Z,3.50
2022-10-23T21:31:13.016Z,3.05
2022-10-23T21:35:14.776Z,3.17
2022-10-23T21:39:19.389Z,2.58
2022-10-23T21:43:21.105Z,2.72
2022-10-23T21:47:22.782Z,3.90
2022-10-23T21:51:26.109Z,3.35
2022-10-23T21:55:29.839Z,2.88
2022-10-23T21:59:34.824Z,2.58
2022-10-23T22:03:37.443Z,3.33
2022-10-23T22:07:39.151Z,3.17
2022-10-23T22:11:40.908Z,3.17
2022-10-23T22:19:44.649Z,2.92
2022-10-23T22:23:49.106Z,3.22
2022-10-23T22:27:50.972Z,2.70
2022-10-23T22:31:53.352Z,3.13
2022-10-23T22:36:03.502Z,2.47
2022-10-23T22:40:05.743Z,2.78
2022-10-23T22:44:11.936Z,3.35
2022-10-23T22:48:13.595Z,2.60
2022-10-23T22:52:15.379Z,3.20
2022-10-23T22:56:20.682Z,2.67
2022-10-23T23:00:22.502Z,2.55
2022-10-23T23:04:39.744Z,2.95
2022-10-23T23:08:42.083Z,2.83
2022-10-23T23:12:43.722Z,2.77
2022-10-23T23:16:45.379Z,3.10
2022-10-23T23:20:47.372Z,3.00
2022-10-23T23:24:48.955Z,2.90
2022-10-23T23:28:52.242Z,2.95
2022-10-23T23:32:54.021Z,3.63
2022-10-23T23:36:55.707Z,3.05
2022-10-23T23:40:57.402Z,2.50
2022-10-23T23:45:02.693Z,3.63
2022-10-23T23:49:15.257Z,3.25
2022-10-23T23:53:17.721Z,2.67
2022-10-23T23:57:19.450Z,3.33
